createdAt,value
2023-03-22T00:00:48.293Z,10.90
2023-03-22T00:03:20.486Z,10.90
2023-03-22T00:05:57.256Z,10.90
2023-03-22T00:08:28.974Z,10.80
2023-03-22T00:11:00.735Z,10.90
2023-03-22T00:13:35.630Z,10.90
2023-03-22T00:16:08.004Z,10.90
2023-03-22T00:18:40.396Z,10.90
2023-03-22T00:21:14.127Z,10.80
2023-03-22T00:23:46.289Z,10.80
2023-03-22T00:26:18.012Z,10.80
2023-03-22T00:28:49.833Z,10.80
2023-03-22T00:31:21.648Z,10.80
2023-03-22T00:33:53.381Z,10.80
2023-03-22T00:36:25.130Z,10.80
2023-03-22T00:38:57.168Z,10.70
2023-03-22T00:41:28.873Z,10.70
2023-03-22T00:44:00.624Z,10.70
2023-03-22T00:46:32.424Z,10.60
2023-03-22T00:49:04.376Z,10.60
2023-03-22T00:51:36.466Z,10.60
2023-03-22T00:54:08.272Z,10.60
2023-03-22T00:56:40.018Z,10.60
2023-03-22T00:59:17.268Z,10.60
2023-03-22T01:01:49.053Z,10.60
2023-03-22T01:04:26.089Z,10.60
2023-03-22T01:07:03.540Z,10.60
2023-03-22T01:09:35.607Z,10.50
2023-03-22T01:12:07.353Z,10.50
2023-03-22T01:14:39.929Z,10.50
2023-03-22T01:17:12.131Z,10.50
2023-03-22T01:19:43.880Z,10.50
2023-03-22T01:22:15.724Z,10.40
2023-03-22T01:24:49.789Z,10.40
2023-03-22T01:27:21.527Z,10.30
2023-03-22T01:29:53.240Z,10.40
2023-03-22T01:32:25.538Z,10.40
2023-03-22T01:34:57.408Z,10.30
2023-03-22T01:37:32.567Z,10.40
2023-03-22T01:40:05.534Z,10.30
2023-03-22T01:42:38.981Z,10.30
2023-03-22T01:45:14.182Z,10.30
2023-03-22T01:47:52.173Z,10.30
2023-03-22T01:50:25.783Z,10.20
2023-03-22T01:52:58.773Z,10.20
2023-03-22T01:55:35.274Z,10.10
2023-03-22T01:58:30.904Z,10.10
2023-03-22T02:01:07.845Z,10.00
2023-03-22T02:04:03.045Z,10.00
2023-03-22T02:06:40.038Z,9.90
2023-03-22T02:09:18.296Z,9.90
2023-03-22T02:12:06.368Z,9.90
2023-03-22T02:15:22.133Z,9.80
2023-03-22T02:18:38.579Z,9.70
2023-03-22T02:21:35.477Z,9.60
2023-03-22T02:24:19.144Z,9.60
2023-03-22T02:27:22.430Z,9.50
2023-03-22T02:29:59.974Z,9.50
2023-03-22T02:32:50.689Z,9.40
2023-03-22T02:35:43.606Z,9.40
2023-03-22T02:38:46.356Z,9.30
2023-03-22T02:41:18.228Z,9.30
2023-03-22T02:44:01.623Z,9.30
2023-03-22T02:47:01.998Z,9.30
2023-03-22T02:49:49.389Z,9.30
2023-03-22T02:52:43.124Z,9.30
2023-03-22T02:55:41.774Z,9.20
2023-03-22T02:58:25.453Z,9.20
2023-03-22T03:01:03.124Z,9.30
2023-03-22T03:03:37.805Z,9.20
2023-03-22T03:06:18.016Z,9.30
2023-03-22T03:08:51.485Z,9.30
2023-03-22T03:11:23.979Z,9.30
2023-03-22T03:13:56.236Z,9.30
2023-03-22T03:16:30.782Z,9.30
2023-03-22T03:19:20.304Z,9.30
2023-03-22T03:22:22.006Z,9.30
2023-03-22T03:25:02.145Z,9.30
2023-03-22T03:27:49.741Z,9.30
2023-03-22T03:30:30.748Z,9.30
2023-03-22T03:33:09.295Z,9.30
2023-03-22T03:35:53.362Z,9.20
2023-03-22T03:38:29.681Z,9.20
2023-03-22T03:41:09.150Z,9.10
2023-03-22T03:43:42.574Z,9.10
2023-03-22T03:46:14.970Z,9.10
2023-03-22T03:48:49.861Z,9.00
2023-03-22T03:51:21.600Z,9.00
2023-03-22T03:53:53.346Z,8.90
2023-03-22T03:56:26.417Z,8.80
2023-03-22T03:58:59.520Z,8.80
2023-03-22T04:01:31.811Z,8.70
2023-03-22T04:04:18.128Z,8.70
2023-03-22T04:06:58.131Z,8.70
2023-03-22T04:09:36.233Z,8.70
2023-03-22T04:12:32.506Z,8.60
2023-03-22T04:15:22.094Z,8.60
2023-03-22T04:17:58.766Z,8.50
2023-03-22T04:20:33.393Z,8.50
2023-03-22T04:23:05.124Z,8.50
2023-03-22T04:25:37.977Z,8.50
2023-03-22T04:28:14.235Z,8.40
2023-03-22T04:30:52.359Z,8.40
2023-03-22T04:33:56.375Z,8.40
2023-03-22T04:36:39.554Z,8.40
2023-03-22T04:39:33.919Z,8.30
2023-03-22T04:42:35.971Z,8.30
2023-03-22T04:45:29.180Z,8.30
2023-03-22T04:48:07.835Z,8.30
2023-03-22T04:50:41.199Z,8.20
2023-03-22T04:53:13.398Z,8.20
2023-03-22T04:55:46.141Z,8.10
2023-03-22T04:58:22.063Z,8.10
2023-03-22T05:00:54.385Z,8.10
2023-03-22T05:03:27.539Z,8.10
2023-03-22T05:06:01.507Z,8.00
2023-03-22T05:08:43.539Z,8.00
2023-03-22T05:11:17.422Z,8.00
2023-03-22T05:13:58.159Z,7.90
2023-03-22T05:16:31.439Z,7.90
2023-03-22T05:19:03.464Z,7.90
2023-03-22T05:21:36.894Z,7.90
2023-03-22T05:24:11.229Z,7.90
2023-03-22T05:26:44.335Z,7.90
2023-03-22T05:29:17.633Z,7.90
2023-03-22T05:32:06.242Z,7.90
2023-03-22T05:34:38.877Z,7.90
2023-03-22T05:37:22.304Z,8.00
2023-03-22T05:39:59.991Z,8.00
2023-03-22T05:42:40.273Z,8.00
2023-03-22T05:45:21.380Z,8.00
2023-03-22T05:48:00.964Z,8.00
2023-03-22T05:50:34.882Z,8.00
2023-03-22T05:53:07.572Z,8.10
2023-03-22T05:55:52.876Z,8.10
2023-03-22T05:58:25.045Z,8.20
2023-03-22T06:01:01.519Z,8.40
2023-03-22T06:03:49.013Z,8.50
2023-03-22T06:06:34.193Z,7.90
2023-03-22T06:09:17.570Z,8.90
2023-03-22T06:11:53.352Z,9.00
2023-03-22T06:14:25.133Z,9.20
2023-03-22T06:17:12.459Z,9.30
2023-03-22T06:19:45.503Z,9.40
2023-03-22T06:22:19.005Z,9.50
2023-03-22T06:24:51.602Z,9.60
2023-03-22T06:27:33.660Z,11.40
2023-03-22T06:30:06.321Z,10.00
2023-03-22T06:32:46.157Z,10.10
2023-03-22T06:35:18.882Z,10.30
2023-03-22T06:37:51.330Z,10.40
2023-03-22T06:40:23.815Z,10.50
2023-03-22T06:42:55.725Z,10.50
2023-03-22T06:45:27.495Z,10.50
2023-03-22T06:47:59.813Z,10.50
2023-03-22T06:50:47.084Z,10.60
2023-03-22T06:53:39.131Z,10.80
2023-03-22T06:56:11.261Z,10.80
2023-03-22T06:58:54.567Z,10.90
2023-03-22T07:01:26.543Z,10.90
2023-03-22T07:03:58.908Z,10.90
2023-03-22T07:06:32.595Z,10.90
2023-03-22T07:09:04.374Z,10.90
2023-03-22T07:11:39.511Z,11.00
2023-03-22T07:14:11.352Z,11.00
2023-03-22T07:16:56.849Z,11.00
2023-03-22T07:19:29.444Z,11.00
2023-03-22T07:22:02.525Z,10.90
2023-03-22T07:24:36.036Z,11.00
2023-03-22T07:27:08.937Z,11.10
2023-03-22T07:29:41.239Z,11.20
2023-03-22T07:32:13.079Z,11.30
2023-03-22T07:34:59.680Z,11.30
2023-03-22T07:37:31.739Z,11.50
2023-03-22T07:40:04.967Z,11.60
2023-03-22T07:42:37.152Z,11.70
2023-03-22T07:45:26.627Z,11.70
2023-03-22T07:48:18.308Z,11.90
2023-03-22T07:51:22.610Z,12.10
2023-03-22T07:53:54.375Z,12.30
2023-03-22T07:56:26.265Z,12.40
2023-03-22T07:58:58.363Z,12.60
2023-03-22T08:01:30.199Z,12.70
2023-03-22T08:04:22.445Z,12.70
2023-03-22T08:07:02.025Z,12.80
2023-03-22T08:09:33.777Z,13.00
2023-03-22T08:12:07.109Z,13.10
2023-03-22T08:14:40.092Z,13.30
2023-03-22T08:17:19.371Z,13.40
2023-03-22T08:19:52.098Z,13.50
2023-03-22T08:22:29.658Z,13.60
2023-03-22T08:25:24.426Z,13.80
2023-03-22T08:27:57.250Z,13.80
2023-03-22T08:30:31.912Z,13.90
2023-03-22T08:33:04.368Z,14.00
2023-03-22T08:35:37.237Z,14.10
2023-03-22T08:38:09.086Z,14.30
2023-03-22T08:40:49.284Z,14.40
2023-03-22T08:43:25.874Z,14.50
2023-03-22T08:45:58.296Z,14.60
2023-03-22T08:48:30.821Z,14.60
2023-03-22T08:51:13.983Z,14.80
2023-03-22T08:54:00.236Z,14.90
2023-03-22T08:56:50.614Z,15.10
2023-03-22T08:59:42.629Z,15.10
2023-03-22T09:02:40.933Z,15.20
2023-03-22T09:05:13.700Z,15.20
2023-03-22T09:07:46.848Z,15.40
2023-03-22T09:10:30.244Z,15.50
2023-03-22T09:13:02.054Z,15.50
2023-03-22T09:15:34.096Z,15.70
2023-03-22T09:18:22.413Z,15.70
2023-03-22T09:20:54.220Z,15.70
2023-03-22T09:23:32.175Z,15.80
2023-03-22T09:26:07.492Z,15.90
2023-03-22T09:28:40.832Z,15.90
2023-03-22T09:31:14.079Z,16.00
2023-03-22T09:33:46.276Z,16.00
2023-03-22T09:36:18.111Z,16.10
2023-03-22T09:38:50.075Z,16.20
2023-03-22T09:41:50.545Z,16.20
2023-03-22T09:44:29.218Z,16.20
2023-03-22T09:47:04.031Z,16.20
2023-03-22T09:49:53.057Z,16.40
2023-03-22T09:52:25.996Z,16.50
2023-03-22T09:54:59.435Z,16.60
2023-03-22T09:57:37.515Z,16.70
2023-03-22T10:00:22.659Z,17.00
2023-03-22T10:03:06.325Z,17.10
2023-03-22T10:05:53.144Z,17.10
2023-03-22T10:08:59.642Z,17.10
2023-03-22T10:11:39.212Z,17.20
2023-03-22T10:14:11.024Z,15.90
2023-03-22T10:16:44.587Z,17.20
2023-03-22T10:19:31.513Z,17.20
2023-03-22T10:22:05.959Z,17.30
2023-03-22T10:24:41.933Z,17.40
2023-03-22T10:27:19.351Z,17.40
2023-03-22T10:29:56.925Z,17.30
2023-03-22T10:32:51.077Z,17.30
2023-03-22T10:35:29.612Z,17.20
2023-03-22T10:38:05.034Z,17.10
2023-03-22T10:40:40.554Z,16.90
2023-03-22T10:43:18.557Z,16.90
2023-03-22T10:45:53.633Z,17.00
2023-03-22T10:48:28.227Z,17.10
2023-03-22T10:51:01.426Z,17.20
2023-03-22T10:53:43.798Z,17.20
2023-03-22T10:56:20.157Z,17.30
2023-03-22T10:58:52.520Z,17.40
2023-03-22T11:01:33.348Z,17.40
2023-03-22T11:04:14.719Z,17.40
2023-03-22T11:06:56.086Z,17.50
2023-03-22T11:09:28.102Z,17.40
2023-03-22T11:12:01.088Z,17.40
2023-03-22T11:14:36.725Z,17.50
2023-03-22T11:17:22.494Z,17.60
2023-03-22T11:20:09.860Z,17.70
2023-03-22T11:22:44.967Z,17.70
2023-03-22T11:25:29.147Z,17.90
2023-03-22T11:28:03.904Z,17.70
2023-03-22T11:30:36.865Z,17.80
2023-03-22T11:33:08.662Z,17.80
2023-03-22T11:35:45.389Z,17.90
2023-03-22T11:38:45.655Z,18.00
2023-03-22T11:41:25.197Z,18.10
2023-03-22T11:44:06.450Z,18.10
2023-03-22T11:46:38.796Z,18.10
2023-03-22T11:49:16.758Z,18.10
2023-03-22T11:51:49.129Z,18.20
2023-03-22T11:54:30.540Z,18.30
2023-03-22T11:57:09.730Z,18.30
2023-03-22T11:59:56.857Z,18.40
2023-03-22T12:02:33.155Z,18.50
2023-03-22T12:05:27.505Z,18.50
2023-03-22T12:08:36.003Z,18.50
2023-03-22T12:11:27.535Z,18.40
2023-03-22T12:14:20.250Z,18.40
2023-03-22T12:17:20.636Z,18.50
2023-03-22T12:20:07.833Z,18.60
2023-03-22T12:22:45.595Z,18.70
2023-03-22T12:25:21.910Z,18.70
2023-03-22T12:27:57.074Z,18.70
2023-03-22T12:30:33.930Z,18.70
2023-03-22T12:33:39.692Z,18.70
2023-03-22T12:36:17.364Z,18.90
2023-03-22T12:38:56.617Z,19.00
2023-03-22T12:41:32.887Z,19.00
2023-03-22T12:44:33.018Z,18.90
2023-03-22T12:47:12.784Z,18.90
2023-03-22T12:50:09.771Z,19.00
2023-03-22T12:52:46.134Z,18.90
2023-03-22T12:55:33.908Z,19.00
2023-03-22T12:58:07.502Z,19.00
2023-03-22T13:00:53.696Z,19.10
2023-03-22T13:03:38.848Z,19.20
2023-03-22T13:06:31.853Z,19.30
2023-03-22T13:09:34.836Z,19.00
2023-03-22T13:12:18.502Z,19.10
2023-03-22T13:14:50.599Z,19.30
2023-03-22T13:17:25.766Z,19.30
2023-03-22T13:20:13.504Z,19.20
2023-03-22T13:22:48.196Z,19.40
2023-03-22T13:25:19.899Z,19.40
2023-03-22T13:27:54.510Z,19.40
2023-03-22T13:30:47.040Z,19.40
2023-03-22T13:33:24.832Z,19.40
2023-03-22T13:35:59.457Z,19.50
2023-03-22T13:38:35.101Z,19.50
2023-03-22T13:41:22.900Z,19.50
2023-03-22T13:43:57.264Z,19.40
2023-03-22T13:46:44.512Z,19.40
2023-03-22T13:49:44.720Z,19.50
2023-03-22T13:52:26.708Z,19.50
2023-03-22T13:54:58.851Z,19.50
2023-03-22T13:57:47.628Z,19.40
2023-03-22T14:00:31.410Z,19.30
2023-03-22T14:03:31.096Z,19.30
2023-03-22T14:06:09.668Z,19.30
2023-03-22T14:08:44.187Z,19.20
2023-03-22T14:11:25.299Z,19.30
2023-03-22T14:14:06.662Z,19.30
2023-03-22T14:16:51.613Z,19.10
2023-03-22T14:19:29.067Z,19.00
